Time;durP1;ratioP1;P1;durP2;ratioP2;P2;SDS_P1;SDS_P2;PMS_P1;PMS_P2;Temp;Humidity;BMP_temperature;BMP_pressure;BME280_temperature;BME280_humidity;BME280_pressure;Samples;Min_cycle;Max_cycle;Signal;HPM_P1;HPM_P2
2023/12/01 00:00:26;;;;;;;1.45;0.95;;;;;;;-0.38;100.00;94243.41;1022889;28;20312;-72
2023/12/01 00:00:56;;;;;;;1.35;1.25;;;;;;;-0.37;100.00;94248.34;1019269;29;20032;-74
2023/12/01 00:01:26;;;;;;;1.50;1.40;;;;;;;-0.35;100.00;94243.72;1019278;29;20393;-74
2023/12/01 00:01:57;;;;;;;1.23;1.23;;;;;;;-0.34;100.00;94254.81;1018746;29;20023;-72
2023/12/01 00:02:28;;;;;;;1.90;1.75;;;;;;;-0.34;100.00;94250.44;1023167;28;20030;-71
2023/12/01 00:02:58;;;;;;;1.74;1.20;;;;;;;-0.33;100.00;94261.56;1031382;28;20026;-73
2023/12/01 00:03:29;;;;;;;2.75;1.27;;;;;;;-0.38;100.00;94251.16;1030821;28;20026;-71
2023/12/01 00:03:59;;;;;;;1.48;0.77;;;;;;;-0.33;100.00;94261.56;1030919;28;20309;-71
2023/12/01 00:04:30;;;;;;;2.33;1.83;;;;;;;-0.32;100.00;94257.97;1027065;28;20454;-71
2023/12/01 00:05:00;;;;;;;2.35;1.30;;;;;;;-0.35;100.00;94259.19;1026085;28;20487;-75
2023/12/01 00:05:31;;;;;;;0.70;0.70;;;;;;;-0.35;100.00;94254.03;1026357;28;20034;-71
2023/12/01 00:06:01;;;;;;;2.03;1.27;;;;;;;-0.32;100.00;94263.09;1022966;28;20020;-71
2023/12/01 00:06:32;;;;;;;0.75;0.75;;;;;;;-0.34;100.00;94260.75;1022637;29;20031;-72
2023/12/01 00:07:03;;;;;;;0.60;0.60;;;;;;;-0.33;100.00;94262.34;1019391;29;20657;-74
2023/12/01 00:07:34;;;;;;;1.60;1.45;;;;;;;-0.29;100.00;94252.34;1019313;28;20447;-74
2023/12/01 00:08:04;;;;;;;1.08;1.08;;;;;;;-0.30;100.00;94255.94;1026939;28;20296;-73
2023/12/01 00:08:35;;;;;;;0.85;0.80;;;;;;;-0.32;100.00;94253.56;1027305;28;20047;-72
2023/12/01 00:09:05;;;;;;;1.45;0.90;;;;;;;-0.31;100.00;94262.88;1029480;28;20045;-73
2023/12/01 00:09:36;;;;;;;1.02;1.00;;;;;;;-0.30;100.00;94261.09;1027002;28;20026;-73
2023/12/01 00:10:12;;;;;;;0.52;0.52;;;;;;;-0.29;100.00;94257.50;1026864;28;20027;-71
2023/12/01 00:10:42;;;;;;;1.80;1.70;;;;;;;-0.33;100.00;94249.44;1023069;28;20034;-71
2023/12/01 00:11:12;;;;;;;1.52;1.42;;;;;;;-0.28;100.00;94259.81;1027780;28;20019;-72
2023/12/01 00:11:43;;;;;;;1.20;1.10;;;;;;;-0.29;100.00;94258.28;1030505;28;20482;-72
2023/12/01 00:12:13;;;;;;;0.45;0.45;;;;;;;-0.29;100.00;94258.28;1024394;28;20459;-72
2023/12/01 00:12:44;;;;;;;3.33;2.10;;;;;;;-0.29;100.00;94252.34;1023480;29;20031;-71
2023/12/01 00:13:14;;;;;;;1.48;1.38;;;;;;;-0.34;100.00;94258.16;1023330;29;20051;-71
2023/12/01 00:13:45;;;;;;;0.98;0.98;;;;;;;-0.30;100.00;94254.16;1023856;28;20542;-74
2023/12/01 00:14:15;;;;;;;0.93;0.93;;;;;;;-0.29;100.00;94253.13;1031000;28;20026;-72
2023/12/01 00:14:46;;;;;;;1.02;0.93;;;;;;;-0.27;100.00;94261.41;1031199;28;20033;-72
2023/12/01 00:15:16;;;;;;;2.33;2.17;;;;;;;-0.27;100.00;94261.41;1031402;28;20038;-73
2023/12/01 00:15:47;;;;;;;2.08;1.55;;;;;;;-0.29;100.00;94253.13;1031118;28;20644;-72
2023/12/01 00:16:17;;;;;;;0.28;0.28;;;;;;;-0.25;100.00;94258.59;1027051;28;20456;-73
2023/12/01 00:16:47;;;;;;;1.35;1.23;;;;;;;-0.24;100.00;94252.41;1019180;29;20028;-71
2023/12/01 00:17:18;;;;;;;6.93;1.50;;;;;;;-0.26;100.00;94249.31;1019368;29;20628;-74
2023/12/01 00:17:48;;;;;;;1.27;1.23;;;;;;;-0.27;100.00;94245.94;1019164;28;20063;-73
2023/12/01 00:18:20;;;;;;;0.88;0.88;;;;;;;-0.27;100.00;94245.94;1022971;28;20034;-73
2023/12/01 00:18:50;;;;;;;1.42;1.32;;;;;;;-0.31;100.00;94247.41;1026632;28;20099;-72
2023/12/01 00:19:21;;;;;;;2.45;2.25;;;;;;;-0.24;100.00;94250.63;1023083;28;20139;-74
2023/12/01 00:19:52;;;;;;;0.95;0.85;;;;;;;-0.23;100.00;94251.41;1022848;28;20086;-74
2023/12/01 00:20:22;;;;;;;2.88;2.32;;;;;;;-0.26;100.00;94252.66;1026713;28;20569;-72
2023/12/01 00:20:53;;;;;;;3.03;1.38;;;;;;;-0.24;100.00;94245.47;1023218;28;20023;-74
2023/12/01 00:21:23;;;;;;;0.75;0.75;;;;;;;-0.32;100.00;94238.13;1022800;29;20026;-70
2023/12/01 00:21:54;;;;;;;1.38;1.13;;;;;;;-0.29;100.00;94245.38;1022718;29;20503;-74
2023/12/01 00:22:24;;;;;;;0.95;0.95;;;;;;;-0.29;100.00;94253.13;1018478;29;20024;-71
2023/12/01 00:22:55;;;;;;;4.88;1.23;;;;;;;-0.28;100.00;94243.59;1018925;29;20016;-72
2023/12/01 00:23:25;;;;;;;0.90;0.90;;;;;;;-0.23;100.00;94256.56;1023058;28;20640;-74
2023/12/01 00:23:56;;;;;;;5.72;2.90;;;;;;;-0.24;100.00;94248.03;1030892;28;20700;-74
2023/12/01 00:24:26;;;;;;;1.15;1.10;;;;;;;-0.28;100.00;94246.94;1038146;28;20029;-72
2023/12/01 00:24:57;;;;;;;1.75;1.63;;;;;;;-0.24;100.00;94255.78;1031147;28;20034;-74
2023/12/01 00:25:27;;;;;;;0.90;0.43;;;;;;;-0.26;100.00;94252.66;1030533;28;20022;-72
2023/12/01 00:25:58;;;;;;;3.13;2.17;;;;;;;-0.25;100.00;94258.59;1032969;28;20466;-73
2023/12/01 00:26:28;;;;;;;0.77;0.77;;;;;;;-0.30;100.00;94251.56;1026577;28;20022;-72
2023/12/01 00:26:59;;;;;;;0.98;0.98;;;;;;;-0.25;100.00;94256.00;1022829;29;20023;-73
2023/12/01 00:27:29;;;;;;;1.55;1.50;;;;;;;-0.32;100.00;94243.28;1027895;28;20019;-71
2023/12/01 00:27:59;;;;;;;0.22;0.20;;;;;;;-0.29;100.00;94239.47;1030634;28;20081;-71
2023/12/01 00:28:30;;;;;;;1.88;1.73;;;;;;;-0.25;100.00;94251.63;1034572;28;20512;-73
2023/12/01 00:29:00;;;;;;;1.02;1.02;;;;;;;-0.26;100.00;94247.50;1035133;28;20021;-74
2023/12/01 00:29:31;;;;;;;2.40;2.28;;;;;;;-0.30;100.00;94240.47;1026349;28;20027;-73
2023/12/01 00:30:03;;;;;;;1.02;0.95;;;;;;;-0.26;100.00;94247.50;1031144;28;20517;-71
2023/12/01 00:30:33;;;;;;;0.92;0.92;;;;;;;-0.24;100.00;94250.63;1030648;28;20494;-71
2023/12/01 00:31:04;;;;;;;6.85;1.75;;;;;;;-0.21;100.00;94246.03;1030656;28;20054;-72
2023/12/01 00:31:35;;;;;;;0.47;0.47;;;;;;;-0.28;100.00;94243.59;1030680;28;20153;-71
2023/12/01 00:32:06;;;;;;;1.77;1.27;;;;;;;-0.25;100.00;94246.47;1022030;29;20466;-71
2023/12/01 00:32:36;;;;;;;1.30;1.30;;;;;;;-0.27;100.00;94248.53;1023045;28;20029;-71
2023/12/01 00:33:06;;;;;;;1.27;1.17;;;;;;;-0.24;100.00;94242.88;1031308;28;20022;-73
2023/12/01 00:33:37;;;;;;;1.65;1.55;;;;;;;-0.26;100.00;94244.16;1030909;28;20027;-72
2023/12/01 00:34:07;;;;;;;0.68;0.68;;;;;;;-0.26;100.00;94239.00;1035014;28;20022;-71
2023/12/01 00:34:38;;;;;;;1.55;1.35;;;;;;;-0.25;100.00;94236.19;1034805;28;20504;-72
2023/12/01 00:35:08;;;;;;;2.13;1.92;;;;;;;-0.22;100.00;94242.66;1030677;28;20053;-71
2023/12/01 00:35:39;;;;;;;1.05;1.05;;;;;;;-0.21;100.00;94236.50;1030952;28;20029;-73
2023/12/01 00:36:09;;;;;;;1.27;1.08;;;;;;;-0.27;100.00;94227.91;1024679;28;20100;-73
2023/12/01 00:36:40;;;;;;;1.67;1.55;;;;;;;-0.21;100.00;94238.28;1022937;29;20126;-73
2023/12/01 00:37:22;;;;;;;2.80;1.17;;;;;;;-0.21;100.00;94233.91;1023155;28;20023;-71
2023/12/01 00:37:52;;;;;;;0.38;0.38;;;;;;;-0.21;100.00;94238.28;1018400;29;20024;-73
2023/12/01 00:38:23;;;;;;;2.60;2.30;;;;;;;-0.22;100.00;94234.94;1022382;28;20032;-73
2023/12/01 00:38:53;;;;;;;1.73;1.63;;;;;;;-0.22;100.00;94237.50;1026711;28;20134;-73
2023/12/01 00:39:24;;;;;;;1.00;1.00;;;;;;;-0.27;100.00;94227.09;1022628;28;20087;-72
2023/12/01 00:39:54;;;;;;;3.55;1.50;;;;;;;-0.22;100.00;94239.31;1031039;28;20042;-71
2023/12/01 00:40:25;;;;;;;0.63;0.63;;;;;;;-0.21;100.00;94239.06;1030642;28;20023;-73
2023/12/01 00:40:55;;;;;;;1.20;1.15;;;;;;;-0.22;100.00;94236.72;1026925;28;20030;-72
2023/12/01 00:41:26;;;;;;;0.68;0.68;;;;;;;-0.24;100.00;94235.16;1026576;28;20039;-71
2023/12/01 00:41:56;;;;;;;0.20;0.20;;;;;;;-0.25;100.00;94232.81;1026159;28;20479;-74
2023/12/01 00:42:26;;;;;;;2.00;1.90;;;;;;;-0.27;100.00;94227.91;1026968;28;20033;-73
2023/12/01 00:42:57;;;;;;;0.17;0.17;;;;;;;-0.24;100.00;94230.00;1022750;28;20382;-74
2023/12/01 00:43:27;;;;;;;0.75;0.75;;;;;;;-0.25;100.00;94228.44;1026616;28;20038;-71
2023/12/01 00:43:58;;;;;;;2.28;0.70;;;;;;;-0.27;100.00;94230.50;1022899;29;20035;-72
2023/12/01 00:44:28;;;;;;;4.30;2.13;;;;;;;-0.25;100.00;94222.50;1022564;28;20519;-72
2023/12/01 00:45:01;;;;;;;1.23;1.23;;;;;;;-0.26;100.00;94232.03;1026914;28;20053;-74
2023/12/01 00:45:31;;;;;;;2.34;2.14;;;;;;;-0.28;100.00;94228.91;1026831;28;20027;-73
2023/12/01 00:46:01;;;;;;;1.92;1.65;;;;;;;-0.27;100.00;94224.53;1030514;28;20034;-73
2023/12/01 00:46:32;;;;;;;2.05;1.85;;;;;;;-0.27;100.00;94224.53;1033709;28;20457;-73
2023/12/01 00:47:02;;;;;;;1.33;1.23;;;;;;;-0.28;100.00;94221.16;1034864;28;20018;-73
2023/12/01 00:47:33;;;;;;;2.83;2.58;;;;;;;-0.26;100.00;94224.31;1030524;28;20089;-71
2023/12/01 00:48:03;;;;;;;0.85;0.50;;;;;;;-0.28;100.00;94222.97;1030607;28;20034;-74
2023/12/01 00:48:34;;;;;;;1.25;1.25;;;;;;;-0.33;100.00;94213.38;1030241;28;20157;-73
2023/12/01 00:49:04;;;;;;;0.70;0.70;;;;;;;-0.25;100.00;94222.50;1022989;28;20011;-72
2023/12/01 00:49:35;;;;;;;1.90;1.17;;;;;;;-0.25;100.00;94212.19;1026727;28;20042;-72
2023/12/01 00:50:06;;;;;;;1.02;1.02;;;;;;;-0.26;100.00;94216.56;1026303;28;20074;-73
2023/12/01 00:50:36;;;;;;;2.38;2.17;;;;;;;-0.29;100.00;94214.47;1027275;28;20110;-71
2023/12/01 00:51:22;;;;;;;1.77;1.65;;;;;;;-0.26;100.00;94219.16;1034495;28;20524;-73
2023/12/01 00:51:53;;;;;;;4.58;2.00;;;;;;;-0.27;100.00;94220.19;1031258;28;20023;-73
2023/12/01 00:52:24;;;;;;;0.40;0.40;;;;;;;-0.26;100.00;94216.56;1034403;28;20026;-74
2023/12/01 00:52:55;;;;;;;3.34;1.22;;;;;;;-0.28;100.00;94215.25;1034683;28;20049;-74
2023/12/01 00:53:25;;;;;;;2.67;1.60;;;;;;;-0.33;100.00;94210.78;1034991;28;20026;-71
2023/12/01 00:53:56;;;;;;;1.67;1.58;;;;;;;-0.28;100.00;94221.16;1030697;28;20121;-73
2023/12/01 00:54:26;;;;;;;0.98;0.98;;;;;;;-0.26;100.00;94215.81;1030520;28;20026;-73
2023/12/01 00:54:56;;;;;;;1.85;0.82;;;;;;;-0.28;100.00;94216.03;1026954;28;20029;-73
2023/12/01 00:55:27;;;;;;;1.85;1.75;;;;;;;-0.26;100.00;94216.56;1022640;28;20027;-71
2023/12/01 00:55:57;;;;;;;2.58;1.15;;;;;;;-0.27;100.00;94211.63;1030957;28;20031;-73
2023/12/01 00:56:28;;;;;;;6.97;2.40;;;;;;;-0.24;100.00;94218.91;1026452;28;20403;-71
2023/12/01 00:56:59;;;;;;;1.24;1.20;;;;;;;-0.25;100.00;94218.13;1026774;28;20182;-70
2023/12/01 00:57:29;;;;;;;3.05;2.55;;;;;;;-0.29;100.00;94213.69;1022933;29;20047;-72
2023/12/01 00:58:00;;;;;;;2.30;2.10;;;;;;;-0.27;100.00;94220.19;1018872;29;20031;-73
2023/12/01 00:58:30;;;;;;;1.75;1.20;;;;;;;-0.26;100.00;94221.72;1022350;29;20039;-73
2023/12/01 00:59:01;;;;;;;1.15;0.70;;;;;;;-0.29;100.00;94209.31;1026917;28;20069;-73
2023/12/01 00:59:31;;;;;;;0.63;0.63;;;;;;;-0.28;100.00;94205.72;1030590;28;20101;-73
2023/12/01 01:00:03;;;;;;;2.17;1.85;;;;;;;-0.27;100.00;94209.88;1035138;28;20116;-73
2023/12/01 01:00:34;;;;;;;2.58;2.10;;;;;;;-0.25;100.00;94201.91;1026609;28;20026;-73
2023/12/01 01:01:05;;;;;;;2.33;2.13;;;;;;;-0.29;100.00;94204.16;1026601;28;20026;-71
2023/12/01 01:01:35;;;;;;;0.62;0.62;;;;;;;-0.26;100.00;94208.84;1019186;29;20110;-72
2023/12/01 01:02:08;;;;;;;1.17;1.15;;;;;;;-0.27;100.00;94212.44;1017959;29;20032;-72
2023/12/01 01:02:38;;;;;;;1.80;1.66;;;;;;;-0.26;100.00;94215.81;1018602;29;20039;-71
2023/12/01 01:03:09;;;;;;;2.50;2.38;;;;;;;-0.27;100.00;94220.19;1015724;29;20070;-73
2023/12/01 01:03:39;;;;;;;1.33;1.33;;;;;;;-0.30;100.00;94209.56;1023432;28;20189;-73
2023/12/01 01:04:10;;;;;;;1.38;0.93;;;;;;;-0.24;100.00;94219.69;1030949;28;20439;-72
2023/12/01 01:04:41;;;;;;;0.92;0.80;;;;;;;-0.24;100.00;94219.69;1031600;28;20042;-71
2023/12/01 01:05:12;;;;;;;1.52;1.42;;;;;;;-0.24;100.00;94222.25;1037298;28;20041;-71
2023/12/01 01:05:42;;;;;;;0.75;0.73;;;;;;;-0.24;100.00;94219.69;1039796;28;20029;-72
2023/12/01 01:06:13;;;;;;;1.02;1.02;;;;;;;-0.27;100.00;94217.59;1034586;28;20034;-73
2023/12/01 01:06:43;;;;;;;5.47;1.42;;;;;;;-0.31;100.00;94219.06;1030626;28;20034;-71
2023/12/01 01:07:14;;;;;;;1.83;1.73;;;;;;;-0.26;100.00;94224.31;1026637;28;20038;-73
2023/12/01 01:07:45;;;;;;;3.80;3.40;;;;;;;-0.29;100.00;94217.03;1018855;29;20059;-73
2023/12/01 01:08:15;;;;;;;0.95;0.95;;;;;;;-0.24;100.00;94234.38;1023152;28;20063;-73
2023/12/01 01:08:46;;;;;;;0.55;0.55;;;;;;;-0.25;100.00;94227.66;1026646;28;20466;-74
2023/12/01 01:09:16;;;;;;;2.45;1.75;;;;;;;-0.24;100.00;94230.00;1026567;28;20035;-73
2023/12/01 01:09:46;;;;;;;0.35;0.35;;;;;;;-0.27;100.00;94224.53;1023067;28;20063;-73
2023/12/01 01:10:18;;;;;;;0.73;0.73;;;;;;;-0.27;100.00;94221.94;1026573;28;20035;-73
2023/12/01 01:10:48;;;;;;;1.42;1.32;;;;;;;-0.25;100.00;94231.03;1026289;28;20030;-74
2023/12/01 01:11:19;;;;;;;1.58;1.48;;;;;;;-0.25;100.00;94231.03;1030677;28;20318;-74
2023/12/01 01:11:49;;;;;;;1.75;1.20;;;;;;;-0.21;100.00;94238.28;1021849;29;20031;-73
2023/12/01 01:12:20;;;;;;;0.88;0.82;;;;;;;-0.24;100.00;94232.56;1019064;28;20023;-74
2023/12/01 01:12:51;;;;;;;1.54;1.44;;;;;;;-0.24;100.00;94235.16;1026424;28;20495;-73
2023/12/01 01:13:21;;;;;;;1.30;1.23;;;;;;;-0.23;100.00;94230.81;1022669;28;20039;-73
2023/12/01 01:13:52;;;;;;;1.95;0.75;;;;;;;-0.24;100.00;94231.78;1026942;28;20094;-73
2023/12/01 01:14:23;;;;;;;4.55;1.90;;;;;;;-0.25;100.00;94223.28;1030472;28;20491;-75
2023/12/01 01:14:54;;;;;;;2.45;2.25;;;;;;;-0.30;100.00;94228.38;1030832;28;20410;-73
2023/12/01 01:15:24;;;;;;;1.52;1.42;;;;;;;-0.28;100.00;94231.47;1022729;29;20031;-73
2023/12/01 01:15:55;;;;;;;0.65;0.65;;;;;;;-0.25;100.00;94237.97;1022612;29;20071;-73
2023/12/01 01:16:25;;;;;;;4.05;2.55;;;;;;;-0.26;100.00;94239.00;1018896;29;20179;-73
2023/12/01 01:16:56;;;;;;;0.55;0.55;;;;;;;-0.27;100.00;94235.63;1018937;28;20079;-73
2023/12/01 01:17:26;;;;;;;1.95;1.85;;;;;;;-0.25;100.00;94235.41;1024325;28;20625;-73
2023/12/01 01:17:57;;;;;;;1.63;1.50;;;;;;;-0.24;100.00;94245.47;1031023;28;20383;-73
2023/12/01 01:18:27;;;;;;;2.67;2.47;;;;;;;-0.26;100.00;94233.84;1026481;28;20027;-74
2023/12/01 01:18:58;;;;;;;1.02;0.68;;;;;;;-0.23;100.00;94241.13;1027037;28;20475;-72
2023/12/01 01:19:28;;;;;;;1.02;1.02;;;;;;;-0.28;100.00;94238.44;1034872;28;20528;-71
2023/12/01 01:20:02;;;;;;;1.05;1.02;;;;;;;-0.29;100.00;94229.94;1026468;28;20059;-71
2023/12/01 01:20:32;;;;;;;1.86;1.56;;;;;;;-0.26;100.00;94242.34;1026901;28;20411;-72
2023/12/01 01:21:03;;;;;;;1.38;1.27;;;;;;;-0.27;100.00;94235.63;1026519;28;20086;-72
2023/12/01 01:21:33;;;;;;;2.47;1.83;;;;;;;-0.29;100.00;94239.47;1023058;28;20023;-72
2023/12/01 01:22:04;;;;;;;0.70;0.70;;;;;;;-0.27;100.00;94240.78;1026378;28;20026;-72
2023/12/01 01:22:34;;;;;;;0.70;0.65;;;;;;;-0.27;100.00;94240.78;1026366;28;20031;-71
2023/12/01 01:23:05;;;;;;;2.53;2.33;;;;;;;-0.25;100.00;94243.13;1022619;28;20023;-71
2023/12/01 01:23:36;;;;;;;0.50;0.50;;;;;;;-0.25;100.00;94246.47;1026673;28;20022;-71
2023/12/01 01:24:06;;;;;;;1.40;1.30;;;;;;;-0.25;100.00;94243.91;1029506;28;20042;-72
2023/12/01 01:24:38;;;;;;;0.46;0.32;;;;;;;-0.24;100.00;94245.47;1024697;28;20427;-70
2023/12/01 01:25:09;;;;;;;1.20;1.00;;;;;;;-0.25;100.00;94254.22;1026392;28;20022;-71
2023/12/01 01:25:39;;;;;;;0.45;0.45;;;;;;;-0.24;100.00;94248.03;1026510;28;20487;-71
2023/12/01 01:26:10;;;;;;;2.05;1.95;;;;;;;-0.25;100.00;94249.06;1027029;28;20031;-71
2023/12/01 01:26:40;;;;;;;0.63;0.63;;;;;;;-0.28;100.00;94244.38;1034650;28;20033;-71
2023/12/01 01:27:10;;;;;;;2.65;2.45;;;;;;;-0.25;100.00;94248.28;1034474;28;20481;-71
2023/12/01 01:27:41;;;;;;;0.65;0.65;;;;;;;-0.28;100.00;94241.78;1032386;28;20402;-71
2023/12/01 01:28:11;;;;;;;0.73;0.55;;;;;;;-0.25;100.00;94249.06;1026386;28;20244;-70
2023/12/01 01:28:42;;;;;;;0.95;0.95;;;;;;;-0.26;100.00;94242.34;1023138;28;20563;-71
2023/12/01 01:29:12;;;;;;;1.27;1.17;;;;;;;-0.24;100.00;94244.69;1022328;28;20047;-73
2023/12/01 01:29:43;;;;;;;2.03;1.92;;;;;;;-0.29;100.00;94242.03;1023922;28;20042;-72
2023/12/01 01:30:14;;;;;;;1.98;1.88;;;;;;;-0.26;100.00;94244.94;1028598;28;20042;-71
2023/12/01 01:30:44;;;;;;;1.45;1.33;;;;;;;-0.28;100.00;94246.94;1028281;28;20054;-72
2023/12/01 01:31:15;;;;;;;0.88;0.73;;;;;;;-0.27;100.00;94248.53;1031270;28;20064;-71
2023/12/01 01:31:45;;;;;;;1.60;0.73;;;;;;;-0.28;100.00;94246.94;1031466;28;20030;-73
2023/12/01 01:32:15;;;;;;;2.65;2.45;;;;;;;-0.28;100.00;94249.53;1032479;28;20022;-71
2023/12/01 01:32:46;;;;;;;1.38;1.27;;;;;;;-0.30;100.00;94246.41;1036819;28;20037;-71
2023/12/01 01:33:17;;;;;;;0.68;0.68;;;;;;;-0.30;100.00;94250.78;1030451;28;20056;-71
2023/12/01 01:33:47;;;;;;;0.95;0.95;;;;;;;-0.30;100.00;94251.56;1026469;28;20027;-71
2023/12/01 01:34:17;;;;;;;1.85;1.73;;;;;;;-0.29;100.00;94244.63;1034748;28;20025;-71
2023/12/01 01:34:48;;;;;;;1.60;1.38;;;;;;;-0.28;100.00;94249.53;1030502;28;20429;-71
2023/12/01 01:35:19;;;;;;;2.00;1.13;;;;;;;-0.29;100.00;94247.97;1026450;28;20019;-71
2023/12/01 01:35:49;;;;;;;0.85;0.85;;;;;;;-0.35;100.00;94243.72;1026865;28;20051;-71
2023/12/01 01:36:19;;;;;;;1.20;0.98;;;;;;;-0.32;100.00;94252.81;1022344;28;20027;-71
2023/12/01 01:36:50;;;;;;;1.42;1.25;;;;;;;-0.30;100.00;94261.88;1018793;28;20426;-71
2023/12/01 01:37:22;;;;;;;0.43;0.43;;;;;;;-0.29;100.00;94253.13;1026525;28;20266;-71
2023/12/01 01:37:52;;;;;;;1.12;1.02;;;;;;;-0.34;100.00;94245.28;1026478;28;20027;-71
2023/12/01 01:38:23;;;;;;;3.50;3.25;;;;;;;-0.29;100.00;94258.28;1026893;28;20116;-71
2023/12/01 01:38:53;;;;;;;1.55;1.10;;;;;;;-0.29;100.00;94258.28;1034433;28;20045;-72
2023/12/01 01:39:24;;;;;;;0.55;0.55;;;;;;;-0.31;100.00;94260.28;1034189;28;20452;-70
2023/12/01 01:39:54;;;;;;;2.25;2.08;;;;;;;-0.39;100.00;94252.16;1026902;28;20045;-71
2023/12/01 01:40:24;;;;;;;1.50;1.40;;;;;;;-0.33;100.00;94261.56;1022373;28;20185;-71
2023/12/01 01:40:55;;;;;;;1.50;1.40;;;;;;;-0.36;100.00;94257.63;1022743;28;20549;-71
2023/12/01 01:41:25;;;;;;;1.52;1.42;;;;;;;-0.30;100.00;94266.25;1026290;28;20521;-71
2023/12/01 01:41:56;;;;;;;2.78;1.98;;;;;;;-0.32;100.00;94252.81;1034005;28;20041;-71
2023/12/01 01:42:27;;;;;;;1.45;1.35;;;;;;;-0.30;100.00;94266.25;1030602;28;20433;-71
2023/12/01 01:42:57;;;;;;;1.85;1.13;;;;;;;-0.31;100.00;94262.88;1034420;28;20033;-71
2023/12/01 01:43:28;;;;;;;3.13;2.83;;;;;;;-0.32;100.00;94253.56;1030509;28;20026;-71
2023/12/01 01:43:58;;;;;;;1.02;1.02;;;;;;;-0.41;100.00;94244.66;1030791;28;20398;-71
2023/12/01 01:44:28;;;;;;;2.15;1.95;;;;;;;-0.34;100.00;94237.56;1033748;28;20032;-71
2023/12/01 01:44:59;;;;;;;1.13;1.05;;;;;;;-0.39;100.00;94239.28;1031087;28;20018;-72
2023/12/01 01:45:29;;;;;;;2.38;1.63;;;;;;;-0.35;100.00;94238.56;1032352;28;20030;-71
2023/12/01 01:46:07;;;;;;;1.05;1.05;;;;;;;-0.34;100.00;94239.34;1030582;28;20026;-70
2023/12/01 01:46:37;;;;;;;1.32;1.30;;;;;;;-0.38;100.00;94233.88;1026666;28;20046;-71
2023/12/01 01:47:08;;;;;;;3.83;2.75;;;;;;;-0.43;100.00;94236.38;1022434;29;20450;-72
2023/12/01 01:47:38;;;;;;;2.70;2.05;;;;;;;-0.40;100.00;94235.94;1022620;29;20034;-70
2023/12/01 01:48:09;;;;;;;2.13;0.70;;;;;;;-0.40;100.00;94233.34;1030597;28;20513;-71
2023/12/01 01:48:41;;;;;;;1.25;0.82;;;;;;;-0.40;100.00;94227.38;1030370;28;20159;-71
2023/12/01 01:49:11;;;;;;;0.82;0.82;;;;;;;-0.39;100.00;94231.56;1022996;28;20023;-72
2023/12/01 01:49:42;;;;;;;1.65;1.55;;;;;;;-0.37;100.00;94238.03;1026643;28;20047;-71
2023/12/01 01:50:13;;;;;;;0.57;0.57;;;;;;;-0.36;100.00;94229.28;1022377;29;20074;-72
2023/12/01 01:50:43;;;;;;;0.45;0.45;;;;;;;-0.37;100.00;94234.66;1026625;28;20038;-73
2023/12/01 01:51:14;;;;;;;1.45;1.35;;;;;;;-0.42;100.00;94232.78;1022184;29;20757;-71
2023/12/01 01:51:44;;;;;;;0.30;0.30;;;;;;;-0.42;100.00;94226.84;1021893;29;20400;-71
2023/12/01 01:52:14;;;;;;;3.42;0.95;;;;;;;-0.39;100.00;94231.56;1022631;29;20039;-72
2023/12/01 01:52:45;;;;;;;2.20;0.88;;;;;;;-0.40;100.00;94241.09;1026231;28;20105;-71
2023/12/01 01:53:15;;;;;;;1.17;1.13;;;;;;;-0.40;100.00;94228.19;1026595;28;20030;-71
2023/12/01 01:53:46;;;;;;;0.52;0.52;;;;;;;-0.36;100.00;94237.03;1022446;29;20042;-72
2023/12/01 01:54:17;;;;;;;1.77;1.67;;;;;;;-0.37;100.00;94245.78;1026540;28;20486;-72
2023/12/01 01:54:48;;;;;;;0.78;0.78;;;;;;;-0.39;100.00;94234.91;1025714;28;20077;-71
2023/12/01 01:55:18;;;;;;;0.77;0.77;;;;;;;-0.33;100.00;94251.25;1026502;28;20031;-72
2023/12/01 01:55:49;;;;;;;0.50;0.50;;;;;;;-0.37;100.00;94238.03;1026507;28;20020;-71
2023/12/01 01:56:19;;;;;;;2.38;2.17;;;;;;;-0.41;100.00;94234.34;1023156;28;20518;-70
2023/12/01 01:56:51;;;;;;;1.58;1.58;;;;;;;-0.33;100.00;94241.72;1022314;28;20527;-72
2023/12/01 01:57:21;;;;;;;1.18;1.18;;;;;;;-0.37;100.00;94250.94;1026642;28;20462;-71
2023/12/01 01:57:52;;;;;;;3.50;2.92;;;;;;;-0.34;100.00;94245.28;1014553;29;20028;-71
2023/12/01 01:58:23;;;;;;;0.90;0.90;;;;;;;-0.34;100.00;94244.50;1021159;28;20039;-72
2023/12/01 01:58:54;;;;;;;2.52;1.34;;;;;;;-0.33;100.00;94246.09;1022522;28;20034;-71
2023/12/01 01:59:24;;;;;;;1.17;0.90;;;;;;;-0.34;100.00;94245.28;1026606;28;20022;-71
2023/12/01 01:59:55;;;;;;;1.27;1.27;;;;;;;-0.31;100.00;94251.78;1030372;28;20022;-71
2023/12/01 02:00:25;;;;;;;1.30;0.85;;;;;;;-0.31;100.00;94249.97;1030379;28;20026;-71
2023/12/01 02:00:56;;;;;;;0.90;0.90;;;;;;;-0.30;100.00;94254.16;1034602;28;20053;-71
2023/12/01 02:01:26;;;;;;;1.10;1.05;;;;;;;-0.31;100.00;94249.97;1035172;28;20022;-72
2023/12/01 02:01:57;;;;;;;1.27;1.17;;;;;;;-0.28;100.00;94252.09;1026311;28;20035;-72
2023/12/01 02:02:27;;;;;;;0.75;0.75;;;;;;;-0.29;100.00;94247.97;1026697;28;20026;-72
2023/12/01 02:02:58;;;;;;;1.27;1.17;;;;;;;-0.31;100.00;94247.41;1023122;28;20535;-71
2023/12/01 02:03:28;;;;;;;0.63;0.63;;;;;;;-0.29;100.00;94250.53;1026381;28;20528;-71
2023/12/01 02:03:59;;;;;;;2.20;2.00;;;;;;;-0.33;100.00;94241.72;1022599;29;20102;-71
2023/12/01 02:04:29;;;;;;;1.30;1.20;;;;;;;-0.29;100.00;94253.13;1022876;29;20027;-71
2023/12/01 02:04:59;;;;;;;1.40;1.35;;;;;;;-0.32;100.00;94245.84;1025792;28;20026;-72
2023/12/01 02:05:33;;;;;;;0.65;0.65;;;;;;;-0.29;100.00;94247.19;1023446;28;20494;-72
2023/12/01 02:06:07;;;;;;;1.16;1.16;;;;;;;-0.30;100.00;94250.78;1026697;28;20070;-73
2023/12/01 02:06:39;;;;;;;1.28;1.20;;;;;;;-0.29;100.00;94242.81;1030476;28;20437;-71
2023/12/01 02:07:27;;;;;;;3.38;1.66;;;;;;;-0.30;100.00;94241.25;1031678;28;20023;-73
2023/12/01 02:07:57;;;;;;;1.16;1.16;;;;;;;-0.29;100.00;94237.66;1029487;28;20022;-73
2023/12/01 02:08:29;;;;;;;1.15;0.90;;;;;;;-0.29;100.00;94247.97;1022600;29;20555;-74
2023/12/01 02:09:00;;;;;;;0.62;0.62;;;;;;;-0.28;100.00;94241.78;1034505;28;20018;-71
2023/12/01 02:09:33;;;;;;;3.10;2.90;;;;;;;-0.27;100.00;94245.94;1030444;28;20030;-71
2023/12/01 02:10:04;;;;;;;1.06;1.06;;;;;;;-0.26;100.00;94239.78;1022111;29;20137;-71
2023/12/01 02:10:36;;;;;;;2.25;2.05;;;;;;;-0.27;100.00;94240.78;1024420;28;20548;-71
2023/12/01 02:11:06;;;;;;;0.42;0.42;;;;;;;-0.26;100.00;94241.56;1020037;28;20028;-71
2023/12/01 02:11:37;;;;;;;3.20;1.52;;;;;;;-0.33;100.00;94236.56;1026501;28;20491;-74
2023/12/01 02:12:08;;;;;;;2.28;2.17;;;;;;;-0.26;100.00;94250.09;1026013;28;20019;-71
2023/12/01 02:12:38;;;;;;;3.53;2.00;;;;;;;-0.26;100.00;94239.78;1034858;28;20024;-71
2023/12/01 02:13:10;;;;;;;2.10;1.88;;;;;;;-0.33;100.00;94235.78;1034578;28;20474;-71
2023/12/01 02:13:40;;;;;;;2.48;1.24;;;;;;;-0.30;100.00;94240.47;1035214;28;20036;-74
2023/12/01 02:14:13;;;;;;;0.98;0.98;;;;;;;-0.29;100.00;94247.97;1030217;28;20078;-71
2023/12/01 02:14:43;;;;;;;1.22;1.12;;;;;;;-0.28;100.00;94249.53;1030807;28;20053;-71
2023/12/01 02:15:14;;;;;;;4.43;1.73;;;;;;;-0.27;100.00;94250.28;1034901;28;20021;-72
2023/12/01 02:15:44;;;;;;;3.35;1.50;;;;;;;-0.26;100.00;94241.56;1034478;28;20597;-71
2023/12/01 02:16:15;;;;;;;3.30;3.03;;;;;;;-0.26;100.00;94244.16;1034750;28;20022;-73
2023/12/01 02:16:45;;;;;;;0.63;0.35;;;;;;;-0.25;100.00;94245.72;1034875;28;20056;-74
2023/12/01 02:17:16;;;;;;;1.65;0.75;;;;;;;-0.62;100.00;94191.22;1030157;28;20397;-73
2023/12/01 02:17:47;;;;;;;2.33;2.00;;;;;;;-0.26;100.00;94247.50;1018545;29;20079;-71
2023/12/01 02:18:25;;;;;;;0.44;0.44;;;;;;;-0.25;100.00;94246.47;1026320;28;20113;-72
2023/12/01 02:18:57;;;;;;;1.26;0.86;;;;;;;-0.24;100.00;94242.09;1030263;28;20022;-72
2023/12/01 02:19:29;;;;;;;1.96;1.80;;;;;;;-0.30;100.00;94237.91;1030619;28;20395;-74
2023/12/01 02:19:59;;;;;;;1.66;1.50;;;;;;;-0.24;100.00;94240.31;1030382;28;20042;-73
2023/12/01 02:20:29;;;;;;;1.85;1.60;;;;;;;-0.26;100.00;94249.31;1031886;28;20030;-73
2023/12/01 02:21:00;;;;;;;1.48;1.38;;;;;;;-0.27;100.00;94245.94;1034654;28;20022;-73
2023/12/01 02:21:35;;;;;;;0.65;0.65;;;;;;;-0.28;100.00;94246.16;1034495;28;20064;-73
2023/12/01 02:22:06;;;;;;;1.50;1.50;;;;;;;-0.24;100.00;94255.00;1025438;28;20045;-73
2023/12/01 02:22:36;;;;;;;1.90;0.78;;;;;;;-0.24;100.00;94253.19;1021178;29;20137;-73
2023/12/01 02:23:07;;;;;;;0.82;0.82;;;;;;;-0.26;100.00;94252.66;1026503;28;20034;-73
2023/12/01 02:23:37;;;;;;;1.67;1.58;;;;;;;-0.24;100.00;94250.63;1027769;28;20498;-72